createdAt,value
2023-02-23T00:00:43.577Z,9.73
2023-02-23T00:01:43.588Z,9.69
2023-02-23T00:02:43.884Z,9.69
2023-02-23T00:03:43.910Z,9.74
2023-02-23T00:04:43.594Z,9.84
2023-02-23T00:05:43.668Z,9.84
2023-02-23T00:06:43.829Z,9.88
2023-02-23T00:07:43.613Z,9.76
2023-02-23T00:08:43.589Z,9.81
2023-02-23T00:09:43.612Z,9.74
2023-02-23T00:10:46.719Z,9.81
2023-02-23T00:11:43.612Z,9.74
2023-02-23T00:12:43.639Z,9.73
2023-02-23T00:13:43.647Z,9.69
2023-02-23T00:14:43.646Z,9.59
2023-02-23T00:15:43.635Z,9.63
2023-02-23T00:16:43.704Z,9.63
2023-02-23T00:17:43.618Z,9.62
2023-02-23T00:18:43.729Z,9.67
2023-02-23T00:19:44.132Z,9.69
2023-02-23T00:20:43.615Z,9.74
2023-02-23T00:21:46.503Z,9.69
2023-02-23T00:22:43.643Z,9.81
2023-02-23T00:23:43.611Z,9.76
2023-02-23T00:24:43.613Z,9.69
2023-02-23T00:25:43.704Z,9.63
2023-02-23T00:26:43.620Z,9.69
2023-02-23T00:27:43.639Z,9.66
2023-02-23T00:28:43.735Z,9.69
2023-02-23T00:29:43.618Z,9.56
2023-02-23T00:30:43.791Z,9.51
2023-02-23T00:31:43.923Z,9.55
2023-02-23T00:32:44.180Z,9.47
2023-02-23T00:33:43.634Z,9.4
2023-02-23T00:34:43.668Z,9.52
2023-02-23T00:35:43.698Z,9.56
2023-02-23T00:36:43.679Z,9.52
2023-02-23T00:37:43.685Z,9.54
2023-02-23T00:38:43.671Z,9.48
2023-02-23T00:39:43.663Z,9.47
2023-02-23T00:40:43.641Z,9.47
2023-02-23T00:41:43.881Z,9.48
2023-02-23T00:42:43.695Z,9.49
2023-02-23T00:43:46.713Z,9.49
2023-02-23T00:44:43.680Z,9.54
2023-02-23T00:45:43.807Z,9.58
2023-02-23T00:46:43.670Z,9.54
2023-02-23T00:47:43.656Z,9.54
2023-02-23T00:48:46.661Z,9.51
2023-02-23T00:49:43.666Z,9.56
2023-02-23T00:50:43.663Z,9.48
2023-02-23T00:51:43.682Z,9.52
2023-02-23T00:52:43.677Z,9.51
2023-02-23T00:53:43.683Z,9.47
2023-02-23T00:54:43.729Z,9.42
2023-02-23T00:55:43.683Z,9.36
2023-02-23T00:56:44.792Z,9.29
2023-02-23T00:57:43.709Z,9.31
2023-02-23T00:58:43.671Z,9.27
2023-02-23T00:59:43.710Z,9.3
2023-02-23T01:00:43.666Z,9.3
2023-02-23T01:01:43.999Z,9.31
2023-02-23T01:02:43.876Z,9.3
2023-02-23T01:03:43.869Z,9.3
2023-02-23T01:04:43.713Z,9.33
2023-02-23T01:05:43.675Z,9.31
2023-02-23T01:06:43.797Z,9.36
2023-02-23T01:07:43.701Z,9.37
2023-02-23T01:08:44.705Z,9.49
2023-02-23T01:09:43.716Z,9.44
2023-02-23T01:10:43.718Z,9.47
2023-02-23T01:11:43.980Z,9.47
2023-02-23T01:12:43.744Z,9.48
2023-02-23T01:13:43.748Z,9.45
2023-02-23T01:14:43.712Z,9.52
2023-02-23T01:15:46.599Z,9.47
2023-02-23T01:16:43.828Z,9.27
2023-02-23T01:17:43.886Z,9.34
2023-02-23T01:18:43.818Z,9.31
2023-02-23T01:19:43.985Z,9.24
2023-02-23T01:20:44.897Z,9.31
2023-02-23T01:21:47.018Z,9.33
2023-02-23T01:22:43.711Z,9.34
2023-02-23T01:23:43.725Z,9.37
2023-02-23T01:24:43.716Z,9.29
2023-02-23T01:25:43.756Z,9.21
2023-02-23T01:26:46.770Z,9.29
2023-02-23T01:27:43.795Z,9.27
2023-02-23T01:28:43.701Z,9.31
2023-02-23T01:29:43.831Z,9.44
2023-02-23T01:30:43.971Z,9.39
2023-02-23T01:31:46.963Z,9.34
2023-02-23T01:32:43.759Z,9.47
2023-02-23T01:33:43.766Z,9.47
2023-02-23T01:34:43.750Z,9.29
2023-02-23T01:35:43.717Z,9.31
2023-02-23T01:36:43.738Z,9.26
2023-02-23T01:37:46.652Z,9.24
2023-02-23T01:38:43.710Z,9.27
2023-02-23T01:39:43.782Z,9.3
2023-02-23T01:40:43.738Z,9.3
2023-02-23T01:41:43.758Z,9.3
2023-02-23T01:42:46.633Z,9.22
2023-02-23T01:43:43.731Z,9.26
2023-02-23T01:44:43.730Z,9.16
2023-02-23T01:45:43.923Z,9.13
2023-02-23T01:46:44.008Z,9.18
2023-02-23T01:47:43.788Z,9.13
2023-02-23T01:48:43.763Z,9.21
2023-02-23T01:49:43.771Z,9.24
2023-02-23T01:50:43.848Z,9.21
2023-02-23T01:51:43.736Z,9.19
2023-02-23T01:52:43.765Z,9.21
2023-02-23T01:53:46.898Z,9.24
2023-02-23T01:54:43.762Z,9.19
2023-02-23T01:55:43.764Z,9.15
2023-02-23T01:56:43.776Z,9.08
2023-02-23T01:57:43.751Z,9.05
2023-02-23T01:58:43.776Z,9.08
2023-02-23T01:59:43.781Z,9.05
2023-02-23T02:00:45.425Z,8.99
2023-02-23T02:01:43.986Z,9
2023-02-23T02:02:43.739Z,8.9
2023-02-23T02:03:43.791Z,8.89
2023-02-23T02:04:47.320Z,8.96
2023-02-23T02:05:43.779Z,9.02
2023-02-23T02:06:43.896Z,8.93
2023-02-23T02:07:43.766Z,9.02
2023-02-23T02:08:43.770Z,9.03
2023-02-23T02:09:43.777Z,8.89
2023-02-23T02:10:43.777Z,9
2023-02-23T02:11:43.857Z,8.96
2023-02-23T02:12:43.759Z,8.96
2023-02-23T02:13:43.888Z,9.12
2023-02-23T02:14:43.761Z,9.02
2023-02-23T02:15:46.857Z,9.02
2023-02-23T02:16:43.797Z,8.82
2023-02-23T02:17:43.832Z,8.78
2023-02-23T02:18:43.777Z,8.86
2023-02-23T02:19:43.794Z,8.89
2023-02-23T02:20:43.785Z,8.84
2023-02-23T02:21:43.811Z,8.81
2023-02-23T02:22:43.828Z,8.72
2023-02-23T02:23:43.927Z,8.84
2023-02-23T02:24:43.851Z,8.75
2023-02-23T02:25:43.821Z,8.86
2023-02-23T02:26:46.889Z,8.71
2023-02-23T02:27:43.802Z,8.86
2023-02-23T02:28:43.908Z,8.86
2023-02-23T02:29:43.853Z,8.78
2023-02-23T02:30:43.997Z,8.79
2023-02-23T02:31:44.237Z,8.66
2023-02-23T02:32:43.808Z,8.79
2023-02-23T02:33:43.842Z,8.9
2023-02-23T02:34:43.806Z,8.9
2023-02-23T02:35:43.866Z,8.87
2023-02-23T02:36:43.853Z,8.93
2023-02-23T02:37:46.940Z,8.96
2023-02-23T02:38:43.846Z,8.9
2023-02-23T02:39:43.825Z,8.93
2023-02-23T02:40:43.822Z,8.9
2023-02-23T02:41:43.825Z,8.9
2023-02-23T02:42:43.849Z,8.95
2023-02-23T02:43:43.895Z,8.84
2023-02-23T02:44:43.823Z,8.89
2023-02-23T02:45:43.839Z,8.86
2023-02-23T02:46:43.854Z,8.86
2023-02-23T02:47:43.833Z,8.79
2023-02-23T02:48:46.869Z,8.77
2023-02-23T02:49:43.916Z,8.82
2023-02-23T02:50:43.839Z,8.78
2023-02-23T02:51:43.857Z,8.75
2023-02-23T02:52:43.835Z,8.77
2023-02-23T02:53:43.936Z,8.86
2023-02-23T02:54:43.835Z,8.78
2023-02-23T02:55:43.821Z,8.84
2023-02-23T02:56:43.834Z,8.86
2023-02-23T02:57:43.847Z,8.81
2023-02-23T02:58:43.862Z,8.87
2023-02-23T02:59:46.675Z,8.82
2023-02-23T03:00:43.840Z,8.79
2023-02-23T03:01:43.966Z,8.69
2023-02-23T03:02:43.863Z,8.72
2023-02-23T03:03:43.860Z,8.66
2023-02-23T03:04:43.847Z,8.66
2023-02-23T03:05:43.882Z,8.71
2023-02-23T03:06:43.861Z,8.77
2023-02-23T03:07:43.908Z,8.75
2023-02-23T03:08:43.892Z,8.68
2023-02-23T03:09:43.866Z,8.69
2023-02-23T03:10:46.934Z,8.5
2023-02-23T03:11:43.862Z,8.49
2023-02-23T03:12:43.860Z,8.53
2023-02-23T03:13:43.892Z,8.46
2023-02-23T03:14:43.874Z,8.39
2023-02-23T03:15:46.831Z,8.41
2023-02-23T03:16:43.878Z,8.39
2023-02-23T03:17:43.872Z,8.44
2023-02-23T03:18:43.901Z,8.44
2023-02-23T03:19:43.957Z,8.42
2023-02-23T03:20:43.880Z,8.41
2023-02-23T03:21:43.920Z,8.32
2023-02-23T03:22:43.885Z,8.27
2023-02-23T03:23:44.039Z,8.36
2023-02-23T03:24:43.873Z,8.49
2023-02-23T03:25:43.910Z,8.36
2023-02-23T03:26:43.883Z,8.49
2023-02-23T03:27:44.196Z,8.42
2023-02-23T03:28:43.965Z,8.35
2023-02-23T03:29:43.894Z,8.44
2023-02-23T03:30:44.077Z,8.36
2023-02-23T03:31:44.214Z,8.46
2023-02-23T03:32:43.975Z,8.52
2023-02-23T03:33:43.971Z,8.49
2023-02-23T03:34:43.886Z,8.52
2023-02-23T03:35:43.920Z,8.57
2023-02-23T03:36:43.939Z,8.54
2023-02-23T03:37:43.958Z,8.54
2023-02-23T03:38:43.956Z,8.54
2023-02-23T03:39:43.926Z,8.44
2023-02-23T03:40:43.909Z,8.46
2023-02-23T03:41:44.099Z,8.26
2023-02-23T03:42:46.745Z,8.26
2023-02-23T03:43:43.932Z,8.21
2023-02-23T03:44:43.909Z,8.31
2023-02-23T03:45:44.066Z,8.34
2023-02-23T03:46:43.925Z,8.36
2023-02-23T03:47:43.944Z,8.36
2023-02-23T03:48:43.953Z,8.36
2023-02-23T03:49:43.923Z,8.39
2023-02-23T03:50:43.935Z,8.35
2023-02-23T03:51:43.929Z,8.32
2023-02-23T03:52:43.914Z,8.35
2023-02-23T03:53:46.744Z,8.32
2023-02-23T03:54:43.935Z,8.26
2023-02-23T03:55:43.932Z,8.2
2023-02-23T03:56:43.924Z,8.28
2023-02-23T03:57:43.970Z,8.2
2023-02-23T03:58:44.810Z,8.14
2023-02-23T03:59:43.937Z,8.09
2023-02-23T04:00:43.926Z,8.06
2023-02-23T04:01:44.047Z,8.08
2023-02-23T04:02:43.945Z,8.05
2023-02-23T04:03:44.160Z,8.09
2023-02-23T04:04:46.975Z,8.08
2023-02-23T04:05:43.953Z,8.11
2023-02-23T04:06:43.984Z,8.09
2023-02-23T04:07:43.970Z,8.08
2023-02-23T04:08:43.990Z,8.08
2023-02-23T04:09:46.994Z,8.06
2023-02-23T04:10:43.957Z,8.09
2023-02-23T04:11:43.956Z,8.11
2023-02-23T04:12:43.948Z,8.13
2023-02-23T04:13:44.166Z,8.06
2023-02-23T04:14:43.985Z,8.11
2023-02-23T04:15:43.949Z,8.02
2023-02-23T04:16:44.134Z,8.05
2023-02-23T04:17:43.973Z,8.11
2023-02-23T04:18:44.016Z,7.96
2023-02-23T04:19:43.966Z,8.06
2023-02-23T04:20:46.951Z,8.06
2023-02-23T04:21:43.988Z,7.9
2023-02-23T04:22:44.003Z,7.95
2023-02-23T04:23:44.022Z,7.84
2023-02-23T04:24:43.978Z,7.9
2023-02-23T04:25:43.984Z,7.83
2023-02-23T04:26:43.967Z,7.8
2023-02-23T04:27:44.136Z,7.87
2023-02-23T04:28:43.994Z,7.91
2023-02-23T04:29:44.029Z,7.8
2023-02-23T04:30:44.128Z,7.81
2023-02-23T04:31:47.437Z,7.77
2023-02-23T04:32:44.683Z,7.7
2023-02-23T04:33:44.018Z,7.7
2023-02-23T04:34:43.967Z,7.69
2023-02-23T04:35:44.028Z,7.56
2023-02-23T04:36:43.999Z,7.56
2023-02-23T04:37:43.982Z,7.62
2023-02-23T04:38:44.050Z,7.67
2023-02-23T04:39:44.089Z,7.75
2023-02-23T04:40:44.050Z,7.66
2023-02-23T04:41:44.031Z,7.59
2023-02-23T04:42:47.087Z,7.53
2023-02-23T04:43:44.071Z,7.56
2023-02-23T04:44:44.001Z,7.56
2023-02-23T04:45:44.181Z,7.51
2023-02-23T04:46:44.015Z,7.4
2023-02-23T04:47:44.028Z,7.47
2023-02-23T04:48:44.059Z,7.33
2023-02-23T04:49:44.009Z,7.37
2023-02-23T04:50:43.999Z,7.46
2023-02-23T04:51:43.983Z,7.4
2023-02-23T04:52:44.023Z,7.51
2023-02-23T04:53:45.545Z,7.4
2023-02-23T04:54:44.065Z,7.43
2023-02-23T04:55:45.099Z,7.39
2023-02-23T04:56:44.039Z,7.4
2023-02-23T04:57:44.040Z,7.39
2023-02-23T04:58:44.061Z,7.28
2023-02-23T04:59:44.024Z,7.37
2023-02-23T05:00:44.035Z,7.43
2023-02-23T05:01:44.279Z,7.48
2023-02-23T05:02:44.010Z,7.48
2023-02-23T05:03:44.076Z,7.39
2023-02-23T05:04:47.182Z,7.33
2023-02-23T05:05:44.011Z,7.33
2023-02-23T05:06:44.011Z,7.37
2023-02-23T05:07:44.061Z,7.33
2023-02-23T05:08:44.068Z,7.37
2023-02-23T05:09:45.783Z,7.32
2023-02-23T05:10:45.054Z,7.32
2023-02-23T05:11:44.044Z,7.31
2023-02-23T05:12:44.064Z,7.22
2023-02-23T05:13:44.085Z,7.25
2023-02-23T05:14:44.071Z,7.28
2023-02-23T05:15:47.361Z,7.37
2023-02-23T05:16:44.068Z,7.41
2023-02-23T05:17:44.070Z,7.36
2023-02-23T05:18:44.072Z,7.37
2023-02-23T05:19:44.143Z,7.33
2023-02-23T05:20:44.043Z,7.32
2023-02-23T05:21:44.082Z,7.46
2023-02-23T05:22:44.072Z,7.53
2023-02-23T05:23:44.086Z,7.5
2023-02-23T05:24:44.062Z,7.64
2023-02-23T05:25:44.071Z,7.44
2023-02-23T05:26:46.926Z,7.59
2023-02-23T05:27:44.063Z,7.58
2023-02-23T05:28:44.099Z,7.59
2023-02-23T05:29:44.147Z,7.62
2023-02-23T05:30:44.503Z,7.51
2023-02-23T05:31:44.505Z,7.44
2023-02-23T05:32:44.087Z,7.37
2023-02-23T05:33:44.255Z,7.31
2023-02-23T05:34:44.095Z,7.32
2023-02-23T05:35:44.083Z,7.4
2023-02-23T05:36:44.076Z,7.39
2023-02-23T05:37:46.929Z,7.37
2023-02-23T05:38:44.274Z,7.39
2023-02-23T05:39:44.079Z,7.29
2023-02-23T05:40:44.134Z,7.39
2023-02-23T05:41:44.102Z,7.46
2023-02-23T05:42:47.093Z,7.51
2023-02-23T05:43:44.061Z,7.58
2023-02-23T05:44:44.111Z,7.51
2023-02-23T05:45:44.115Z,7.47
2023-02-23T05:46:44.112Z,7.5
2023-02-23T05:47:44.099Z,7.47
2023-02-23T05:48:44.084Z,7.39
2023-02-23T05:49:44.111Z,7.37
2023-02-23T05:50:44.088Z,7.37
2023-02-23T05:51:44.085Z,7.41
2023-02-23T05:52:44.113Z,7.44
2023-02-23T05:53:44.081Z,7.43
2023-02-23T05:54:44.132Z,7.46
2023-02-23T05:55:44.099Z,7.51
2023-02-23T05:56:44.084Z,7.53
2023-02-23T05:57:44.087Z,7.53
2023-02-23T05:58:44.072Z,7.55
2023-02-23T05:59:44.101Z,7.66
2023-02-23T06:00:44.113Z,7.69
2023-02-23T06:01:44.133Z,7.58
2023-02-23T06:02:44.404Z,7.58
2023-02-23T06:03:44.283Z,7.62
2023-02-23T06:04:44.133Z,7.5
2023-02-23T06:05:44.492Z,7.59
2023-02-23T06:06:44.138Z,7.58
2023-02-23T06:07:44.097Z,7.66
2023-02-23T06:08:44.115Z,7.66
2023-02-23T06:09:46.918Z,7.69
2023-02-23T06:10:44.117Z,7.75
2023-02-23T06:11:44.162Z,7.77
2023-02-23T06:12:44.121Z,7.62
2023-02-23T06:13:44.120Z,7.7
2023-02-23T06:14:44.141Z,7.67
2023-02-23T06:15:44.334Z,7.53
2023-02-23T06:16:44.696Z,7.5
2023-02-23T06:17:44.140Z,7.53
2023-02-23T06:18:44.181Z,7.64
2023-02-23T06:19:44.134Z,7.77
2023-02-23T06:20:47.878Z,7.7
2023-02-23T06:21:44.112Z,7.74
2023-02-23T06:22:44.141Z,7.77
2023-02-23T06:23:44.115Z,7.69
2023-02-23T06:24:44.145Z,7.64
2023-02-23T06:25:47.256Z,7.69
2023-02-23T06:26:46.718Z,7.67
2023-02-23T06:27:44.151Z,7.77
2023-02-23T06:28:44.149Z,7.74
2023-02-23T06:29:44.145Z,7.87
2023-02-23T06:30:44.288Z,7.84
2023-02-23T06:31:47.799Z,7.84
2023-02-23T06:32:44.255Z,7.78
2023-02-23T06:33:44.181Z,7.77
2023-02-23T06:34:44.178Z,7.84
2023-02-23T06:35:44.151Z,7.81
2023-02-23T06:36:47.431Z,7.96
2023-02-23T06:37:44.167Z,8.02
2023-02-23T06:38:44.141Z,8.01
2023-02-23T06:39:44.160Z,7.93
2023-02-23T06:40:44.154Z,7.85
2023-02-23T06:41:44.211Z,7.84
2023-02-23T06:42:44.174Z,7.87
2023-02-23T06:43:44.246Z,7.91
2023-02-23T06:44:44.180Z,7.81
2023-02-23T06:45:44.170Z,7.84
2023-02-23T06:46:44.317Z,7.84
2023-02-23T06:47:47.218Z,7.88
2023-02-23T06:48:44.166Z,7.9
2023-02-23T06:49:44.165Z,8.06
2023-02-23T06:50:44.179Z,8.11
2023-02-23T06:51:44.178Z,8.06
2023-02-23T06:52:44.231Z,8.18
2023-02-23T06:53:44.172Z,8.16
2023-02-23T06:54:44.261Z,8.18
2023-02-23T06:55:44.173Z,8.16
2023-02-23T06:56:44.087Z,8.27
2023-02-23T06:57:44.165Z,8.2
2023-02-23T06:58:47.176Z,8.14
2023-02-23T06:59:44.178Z,8.28
2023-02-23T07:00:44.218Z,8.23
2023-02-23T07:01:44.309Z,8.13
2023-02-23T07:02:44.175Z,8.18
2023-02-23T07:03:44.114Z,8.31
2023-02-23T07:04:44.264Z,8.26
2023-02-23T07:05:44.288Z,8.23
2023-02-23T07:06:44.221Z,8.42
2023-02-23T07:07:44.456Z,8.35
2023-02-23T07:08:44.241Z,8.38
2023-02-23T07:09:47.268Z,8.38
2023-02-23T07:10:44.216Z,8.5
2023-02-23T07:11:44.231Z,8.5
2023-02-23T07:12:44.278Z,8.49
2023-02-23T07:13:44.271Z,8.57
2023-02-23T07:14:44.370Z,8.59
2023-02-23T07:15:44.228Z,8.71
2023-02-23T07:16:44.411Z,8.74
2023-02-23T07:17:44.251Z,8.79
2023-02-23T07:18:44.297Z,8.75
2023-02-23T07:19:44.381Z,8.79
2023-02-23T07:20:47.212Z,8.82
2023-02-23T07:21:44.427Z,8.84
2023-02-23T07:22:44.832Z,8.74
2023-02-23T07:23:44.239Z,8.77
2023-02-23T07:24:44.275Z,8.74
2023-02-23T07:25:44.240Z,8.89
2023-02-23T07:26:44.192Z,8.82
2023-02-23T07:27:44.245Z,8.82
2023-02-23T07:28:44.213Z,8.82
2023-02-23T07:29:44.252Z,8.93
2023-02-23T07:30:44.322Z,8.92
2023-02-23T07:31:47.547Z,8.93
2023-02-23T07:32:44.371Z,8.96
2023-02-23T07:33:44.228Z,8.89
2023-02-23T07:34:44.244Z,9
2023-02-23T07:35:44.208Z,9.08
2023-02-23T07:36:44.231Z,9
2023-02-23T07:37:44.278Z,9.02
2023-02-23T07:38:44.272Z,9
2023-02-23T07:39:44.237Z,9
2023-02-23T07:40:44.271Z,9.08
2023-02-23T07:41:44.238Z,9.05
2023-02-23T07:42:47.268Z,9.05
2023-02-23T07:43:44.244Z,9.11
2023-02-23T07:44:44.249Z,8.97
2023-02-23T07:45:46.468Z,8.95
2023-02-23T07:46:44.260Z,9.03
2023-02-23T07:47:44.285Z,8.92
2023-02-23T07:48:44.267Z,8.89
2023-02-23T07:49:44.270Z,9
2023-02-23T07:50:44.324Z,9
2023-02-23T07:51:44.474Z,9.03
2023-02-23T07:52:44.251Z,9.12
2023-02-23T07:53:48.198Z,9.19
2023-02-23T07:54:44.278Z,9.21
2023-02-23T07:55:44.264Z,9.24
2023-02-23T07:56:44.277Z,9.39
2023-02-23T07:57:44.241Z,9.31
2023-02-23T07:58:44.274Z,9.27
2023-02-23T07:59:44.305Z,9.24
2023-02-23T08:00:44.322Z,9.39
2023-02-23T08:01:44.280Z,9.4
2023-02-23T08:02:44.285Z,9.31
2023-02-23T08:03:44.283Z,9.4
2023-02-23T08:04:47.446Z,9.49
2023-02-23T08:05:44.288Z,9.44
2023-02-23T08:06:44.278Z,9.58
2023-02-23T08:07:44.268Z,9.54
2023-02-23T08:08:44.312Z,9.54
2023-02-23T08:09:45.160Z,9.58
2023-02-23T08:10:52.062Z,9.52
2023-02-23T08:11:44.309Z,9.62
2023-02-23T08:12:44.503Z,9.7
2023-02-23T08:13:44.305Z,9.74
2023-02-23T08:14:44.299Z,9.72
2023-02-23T08:15:44.304Z,9.7
2023-02-23T08:16:44.432Z,9.8
2023-02-23T08:17:44.316Z,9.76
2023-02-23T08:18:44.601Z,9.87
2023-02-23T08:19:44.294Z,9.84
2023-02-23T08:20:44.296Z,9.9
2023-02-23T08:21:44.293Z,9.87
2023-02-23T08:22:54.040Z,9.87
2023-02-23T08:23:44.303Z,9.95
2023-02-23T08:24:44.353Z,9.95
2023-02-23T08:25:44.490Z,9.88
2023-02-23T08:26:44.317Z,9.97
2023-02-23T08:27:44.310Z,10.09
2023-02-23T08:28:44.337Z,10.05
2023-02-23T08:29:44.316Z,10.03
2023-02-23T08:30:44.708Z,10.03
2023-02-23T08:31:45.015Z,10.09
2023-02-23T08:32:44.457Z,10.05
2023-02-23T08:33:44.350Z,10.12
2023-02-23T08:34:44.332Z,10.13
2023-02-23T08:35:44.344Z,10.09
2023-02-23T08:36:47.202Z,10.1
2023-02-23T08:37:44.334Z,10.24
2023-02-23T08:38:44.358Z,10.2
2023-02-23T08:39:45.967Z,10.21
2023-02-23T08:40:44.340Z,10.24
2023-02-23T08:41:44.375Z,10.25
2023-02-23T08:42:47.450Z,10.15
2023-02-23T08:43:44.328Z,10.27
2023-02-23T08:44:44.399Z,10.13
2023-02-23T08:45:44.351Z,10.12
2023-02-23T08:46:44.337Z,10.3
2023-02-23T08:47:47.470Z,10.18
2023-02-23T08:48:44.321Z,10.3
2023-02-23T08:49:44.369Z,10.25
2023-02-23T08:50:44.340Z,10.23
2023-02-23T08:51:44.319Z,10.31
2023-02-23T08:52:47.402Z,10.24
2023-02-23T08:53:44.356Z,10.27
2023-02-23T08:54:44.376Z,10.31
2023-02-23T08:55:44.334Z,10.34
2023-02-23T08:56:44.339Z,10.38
2023-02-23T08:57:44.882Z,10.34
2023-02-23T08:58:47.114Z,10.33
2023-02-23T08:59:44.388Z,10.25
2023-02-23T09:00:44.430Z,10.28
2023-02-23T09:01:44.516Z,10.36
2023-02-23T09:02:44.360Z,10.36
2023-02-23T09:03:47.132Z,10.38
2023-02-23T09:04:44.387Z,10.36
2023-02-23T09:05:44.749Z,10.38
2023-02-23T09:06:44.399Z,10.41
2023-02-23T09:07:44.391Z,10.42
2023-02-23T09:08:44.363Z,10.38
2023-02-23T09:09:47.428Z,10.45
2023-02-23T09:10:44.377Z,10.42
2023-02-23T09:11:44.355Z,10.46
2023-02-23T09:12:44.400Z,10.43
2023-02-23T09:13:44.428Z,10.46
2023-02-23T09:14:47.563Z,10.46
2023-02-23T09:15:44.597Z,10.38
2023-02-23T09:16:44.407Z,10.49
2023-02-23T09:17:44.378Z,10.59
2023-02-23T09:18:44.407Z,10.55
2023-02-23T09:19:44.412Z,10.42
2023-02-23T09:20:44.462Z,10.46
2023-02-23T09:21:44.375Z,10.43
2023-02-23T09:22:44.401Z,10.49
2023-02-23T09:23:44.371Z,10.48
2023-02-23T09:24:44.426Z,10.46
2023-02-23T09:25:47.341Z,10.48
2023-02-23T09:26:46.692Z,10.55
2023-02-23T09:27:44.429Z,10.45
2023-02-23T09:28:44.400Z,10.53
2023-02-23T09:29:44.782Z,10.49
2023-02-23T09:30:44.513Z,10.57
2023-02-23T09:31:44.748Z,10.65
2023-02-23T09:32:44.702Z,10.49
2023-02-23T09:33:44.411Z,10.51
2023-02-23T09:34:44.438Z,10.55
2023-02-23T09:35:44.396Z,10.55
2023-02-23T09:36:47.188Z,10.59
2023-02-23T09:37:44.416Z,10.58
2023-02-23T09:38:44.451Z,10.65
2023-02-23T09:39:44.512Z,10.64
2023-02-23T09:40:44.417Z,10.61
2023-02-23T09:41:44.486Z,10.62
2023-02-23T09:42:44.406Z,10.64
2023-02-23T09:43:44.431Z,10.67
2023-02-23T09:44:44.440Z,10.58
2023-02-23T09:45:44.800Z,10.65
2023-02-23T09:46:44.425Z,10.75
2023-02-23T09:47:47.236Z,10.65
2023-02-23T09:48:44.433Z,10.82
2023-02-23T09:49:44.464Z,10.68
2023-02-23T09:50:44.473Z,10.76
2023-02-23T09:51:44.474Z,10.71
2023-02-23T09:52:44.986Z,10.83
2023-02-23T09:53:44.814Z,10.82
2023-02-23T09:54:44.441Z,10.86
2023-02-23T09:55:44.464Z,10.83
2023-02-23T09:56:44.475Z,10.86
2023-02-23T09:57:44.520Z,10.95
2023-02-23T09:58:47.272Z,10.92
2023-02-23T09:59:44.291Z,10.97
2023-02-23T10:00:44.457Z,10.94
2023-02-23T10:01:44.637Z,10.89
2023-02-23T10:02:44.487Z,10.95
2023-02-23T10:03:44.517Z,11
2023-02-23T10:04:44.614Z,11.04
2023-02-23T10:05:44.447Z,11.07
2023-02-23T10:06:44.468Z,10.94
2023-02-23T10:07:44.465Z,10.97
2023-02-23T10:08:44.518Z,11.07
2023-02-23T10:09:47.736Z,10.97
2023-02-23T10:10:44.400Z,11
2023-02-23T10:11:46.489Z,11.1
2023-02-23T10:12:44.483Z,11.04
2023-02-23T10:13:44.487Z,11.12
2023-02-23T10:14:44.500Z,11.05
2023-02-23T10:15:44.659Z,11.04
2023-02-23T10:16:44.471Z,11.07
2023-02-23T10:17:44.549Z,11.12
2023-02-23T10:18:51.813Z,11.1
2023-02-23T10:19:44.530Z,11.07
2023-02-23T10:20:47.283Z,11.12
2023-02-23T10:21:44.521Z,11.15
2023-02-23T10:22:44.492Z,11.12
2023-02-23T10:23:44.529Z,11.08
2023-02-23T10:24:44.561Z,11.08
2023-02-23T10:25:44.533Z,11.16
2023-02-23T10:26:44.493Z,11.16
2023-02-23T10:27:44.537Z,11.19
2023-02-23T10:28:46.323Z,11.16
2023-02-23T10:29:44.526Z,11.16
2023-02-23T10:30:44.596Z,11.12
2023-02-23T10:31:48.895Z,11.27
2023-02-23T10:32:44.681Z,11.2
2023-02-23T10:33:44.558Z,11.22
2023-02-23T10:34:44.554Z,11.2
2023-02-23T10:35:44.529Z,11.25
2023-02-23T10:36:44.555Z,11.31
2023-02-23T10:37:44.520Z,11.3
2023-02-23T10:38:44.536Z,11.26
2023-02-23T10:39:44.508Z,11.25
2023-02-23T10:40:44.530Z,11.25
2023-02-23T10:41:44.541Z,11.25
2023-02-23T10:42:44.559Z,11.27
2023-02-23T10:43:44.566Z,11.22
2023-02-23T10:44:44.535Z,11.26
2023-02-23T10:45:44.545Z,11.23
2023-02-23T10:46:44.783Z,11.38
2023-02-23T10:47:44.521Z,11.37
2023-02-23T10:48:44.746Z,11.41
2023-02-23T10:49:44.605Z,11.31
2023-02-23T10:50:44.727Z,11.33
2023-02-23T10:51:44.465Z,11.38
2023-02-23T10:52:47.532Z,11.38
2023-02-23T10:53:44.567Z,11.48
2023-02-23T10:54:44.593Z,11.41
2023-02-23T10:55:44.573Z,11.52
2023-02-23T10:56:44.545Z,11.49
2023-02-23T10:57:44.879Z,11.41
2023-02-23T10:58:44.557Z,11.37
2023-02-23T10:59:44.600Z,11.52
2023-02-23T11:00:44.588Z,11.48
2023-02-23T11:02:04.536Z,11.45
2023-02-23T11:02:44.702Z,11.4
2023-02-23T11:03:54.978Z,11.41
2023-02-23T11:04:44.657Z,11.38
2023-02-23T11:05:44.678Z,11.48
2023-02-23T11:06:44.603Z,11.53
2023-02-23T11:07:44.550Z,11.53
2023-02-23T11:08:44.563Z,11.52
2023-02-23T11:09:56.226Z,11.53
2023-02-23T11:10:44.580Z,11.53
2023-02-23T11:11:44.563Z,11.58
2023-02-23T11:12:44.810Z,11.59
2023-02-23T11:13:44.688Z,11.65
2023-02-23T11:14:49.344Z,11.6
2023-02-23T11:15:58.433Z,11.6
2023-02-23T11:16:44.705Z,11.67
2023-02-23T11:17:44.627Z,11.62
2023-02-23T11:18:44.598Z,11.59
2023-02-23T11:19:48.745Z,11.58
2023-02-23T11:20:44.618Z,11.55
2023-02-23T11:21:44.880Z,11.41
2023-02-23T11:22:44.644Z,11.43
2023-02-23T11:23:44.757Z,11.4
2023-02-23T11:24:44.666Z,11.49
2023-02-23T11:25:49.400Z,11.34
2023-02-23T11:26:45.091Z,11.48
2023-02-23T11:27:44.603Z,11.58
2023-02-23T11:28:44.626Z,11.55
2023-02-23T11:29:44.600Z,11.58
2023-02-23T11:30:48.933Z,11.59
2023-02-23T11:31:44.994Z,11.58
2023-02-23T11:32:44.875Z,11.67
2023-02-23T11:33:44.616Z,11.63
2023-02-23T11:34:44.593Z,11.62
2023-02-23T11:35:44.617Z,11.65
2023-02-23T11:36:47.426Z,11.65
2023-02-23T11:37:44.631Z,11.65
2023-02-23T11:38:44.728Z,11.71
2023-02-23T11:39:44.608Z,11.73
2023-02-23T11:40:44.637Z,11.7
2023-02-23T11:41:47.421Z,11.7
2023-02-23T11:42:44.619Z,11.73
2023-02-23T11:43:44.639Z,11.8
2023-02-23T11:44:44.616Z,11.71
2023-02-23T11:45:46.709Z,11.63
2023-02-23T11:46:44.832Z,11.78
2023-02-23T11:47:44.644Z,11.88
2023-02-23T11:48:44.645Z,11.88
2023-02-23T11:49:44.623Z,11.91
2023-02-23T11:50:44.733Z,11.86
2023-02-23T11:51:44.638Z,11.96
2023-02-23T11:52:47.760Z,11.91
2023-02-23T11:53:44.721Z,11.96
2023-02-23T11:54:44.740Z,11.97
2023-02-23T11:55:44.660Z,11.99
2023-02-23T11:56:44.666Z,12.03
2023-02-23T11:57:44.625Z,12.02
2023-02-23T11:58:44.649Z,12.03
2023-02-23T11:59:45.800Z,12.02
2023-02-23T12:00:44.678Z,12.08
2023-02-23T12:01:44.660Z,12.17
2023-02-23T12:02:44.803Z,12.18
2023-02-23T12:03:47.565Z,12.1
2023-02-23T12:04:44.891Z,12.07
2023-02-23T12:05:44.664Z,12.15
2023-02-23T12:06:44.926Z,12.12
2023-02-23T12:07:44.692Z,12.12
2023-02-23T12:08:44.704Z,12.14
2023-02-23T12:09:44.709Z,12.25
2023-02-23T12:10:44.990Z,12.15
2023-02-23T12:11:45.696Z,12.15
2023-02-23T12:12:44.662Z,12.18
2023-02-23T12:13:44.681Z,12.12
2023-02-23T12:14:47.483Z,12.17
2023-02-23T12:15:44.707Z,12.25
2023-02-23T12:16:45.909Z,12.14
2023-02-23T12:17:44.685Z,12.28
2023-02-23T12:18:44.662Z,12.32
2023-02-23T12:19:44.783Z,12.23
2023-02-23T12:20:44.551Z,12.32
2023-02-23T12:21:44.665Z,12.33
2023-02-23T12:22:44.695Z,12.28
2023-02-23T12:23:45.646Z,12.2
2023-02-23T12:24:44.720Z,12.2
2023-02-23T12:25:47.810Z,12.2
2023-02-23T12:26:44.701Z,12.14
2023-02-23T12:27:44.680Z,12.14
2023-02-23T12:28:44.730Z,12.17
2023-02-23T12:29:44.739Z,12.17
2023-02-23T12:30:44.811Z,12.18
2023-02-23T12:31:45.251Z,12.2
2023-02-23T12:32:44.784Z,12.21
2023-02-23T12:33:44.701Z,12.26
2023-02-23T12:34:44.708Z,12.17
2023-02-23T12:35:44.740Z,12.33
2023-02-23T12:36:47.532Z,12.3
2023-02-23T12:37:44.687Z,12.29
2023-02-23T12:38:44.849Z,12.33
2023-02-23T12:39:44.729Z,12.29
2023-02-23T12:40:44.780Z,12.33
2023-02-23T12:41:44.783Z,12.4
2023-02-23T12:42:44.729Z,12.36
2023-02-23T12:43:44.733Z,12.32
2023-02-23T12:44:44.727Z,12.33
2023-02-23T12:45:44.778Z,12.53
2023-02-23T12:46:44.711Z,12.39
2023-02-23T12:47:47.480Z,12.43
2023-02-23T12:48:44.722Z,12.39
2023-02-23T12:49:44.723Z,12.45
2023-02-23T12:50:44.725Z,12.54
2023-02-23T12:51:44.792Z,12.43
2023-02-23T12:52:44.722Z,12.55
2023-02-23T12:53:44.742Z,12.44
2023-02-23T12:54:44.729Z,12.5
2023-02-23T12:55:44.728Z,12.45
2023-02-23T12:56:44.963Z,12.61
2023-02-23T12:57:44.544Z,12.75
2023-02-23T12:58:47.784Z,12.68
2023-02-23T12:59:44.877Z,12.68
2023-02-23T13:00:44.823Z,12.68
2023-02-23T13:01:44.901Z,12.75
2023-02-23T13:02:44.944Z,12.84
2023-02-23T13:03:44.757Z,12.84
2023-02-23T13:04:44.746Z,12.88
2023-02-23T13:05:44.766Z,12.91
2023-02-23T13:06:44.801Z,12.94
2023-02-23T13:07:44.750Z,12.95
2023-02-23T13:08:44.751Z,12.88
2023-02-23T13:09:44.759Z,13.02
2023-02-23T13:10:44.757Z,12.95
2023-02-23T13:11:44.814Z,12.93
2023-02-23T13:12:44.960Z,13.11